Time;durP1;ratioP1;P1;durP2;ratioP2;P2;SDS_P1;SDS_P2;PMS_P1;PMS_P2;Temp;Humidity;BMP_temperature;BMP_pressure;BME280_temperature;BME280_humidity;BME280_pressure;Samples;Min_cycle;Max_cycle;Signal;HPM_P1;HPM_P2
2021/06/21 00:01:21;;;;;;;4.93;1.70;;;;;;;;;;4160537;28;20038;-52
2021/06/21 00:03:24;;;;;;;3.53;1.50;;;18.60;61.30;;;;;;4166497;28;20067;-48
2021/06/21 00:05:26;;;;;;;2.70;1.30;;;18.40;61.50;;;;;;4177386;28;20037;-50
2021/06/21 00:07:28;;;;;;;4.10;1.35;;;18.40;61.40;;;;;;4165126;28;20018;-51
2021/06/21 00:09:30;;;;;;;3.00;1.60;;;18.30;61.60;;;;;;4163244;28;20542;-49
2021/06/21 00:12:07;;;;;;;2.45;1.60;;;18.30;61.60;;;;;;4164334;28;20044;-48
2021/06/21 00:14:09;;;;;;;1.88;1.40;;;18.30;61.80;;;;;;4164630;28;20185;-52
2021/06/21 00:16:11;;;;;;;2.42;1.33;;;18.20;61.80;;;;;;4164678;28;20029;-51
2021/06/21 00:18:15;;;;;;;2.08;1.33;;;18.20;62.10;;;;;;4158986;28;20143;-53
2021/06/21 00:20:21;;;;;;;2.10;1.35;;;18.20;62.00;;;;;;4159931;28;20029;-47
2021/06/21 00:22:23;;;;;;;3.67;1.52;;;18.10;62.10;;;;;;4164334;28;20129;-50
2021/06/21 00:24:25;;;;;;;3.85;1.25;;;18.10;62.30;;;;;;4163820;28;20319;-56
2021/06/21 00:26:28;;;;;;;5.38;1.60;;;18.10;62.30;;;;;;4164527;28;20382;-52
2021/06/21 00:28:30;;;;;;;2.67;1.25;;;18.10;62.60;;;;;;4162879;28;20074;-53
2021/06/21 00:30:32;;;;;;;2.85;1.48;;;18.10;62.70;;;;;;4166763;28;20161;-52
2021/06/21 00:32:34;;;;;;;6.03;1.90;;;18.10;63.00;;;;;;4166058;28;20070;-50
2021/06/21 00:34:37;;;;;;;4.32;1.48;;;18.00;62.80;;;;;;4161402;28;20041;-47
2021/06/21 00:36:39;;;;;;;5.18;1.63;;;18.10;63.00;;;;;;4167204;28;20059;-50
2021/06/21 00:38:41;;;;;;;1.65;1.20;;;18.00;63.10;;;;;;4169057;28;20077;-52
2021/06/21 00:40:43;;;;;;;3.25;1.58;;;18.00;63.00;;;;;;4165685;28;20017;-51
2021/06/21 00:42:48;;;;;;;4.63;1.45;;;18.00;63.10;;;;;;4166407;28;20206;-51
2021/06/21 00:44:50;;;;;;;3.85;1.33;;;18.00;63.20;;;;;;4169590;28;20025;-52
2021/06/21 00:46:52;;;;;;;2.50;1.35;;;18.00;63.70;;;;;;4165811;28;20109;-45
2021/06/21 00:48:54;;;;;;;2.55;1.42;;;18.00;63.20;;;;;;4168862;28;20154;-50
2021/06/21 00:50:56;;;;;;;3.78;1.48;;;18.00;63.30;;;;;;4165682;28;20040;-50
2021/06/21 00:53:00;;;;;;;3.67;1.38;;;18.00;63.40;;;;;;4166654;28;20097;-49
2021/06/21 00:55:03;;;;;;;2.97;1.33;;;18.00;63.30;;;;;;4166918;28;20091;-49
2021/06/21 00:57:06;;;;;;;2.97;1.20;;;18.00;63.30;;;;;;4169945;28;20025;-47
2021/06/21 00:59:09;;;;;;;4.20;1.63;;;18.00;63.40;;;;;;4167151;28;20185;-47
2021/06/21 01:01:11;;;;;;;3.70;1.40;;;18.00;63.40;;;;;;4167606;28;20365;-52
2021/06/21 01:03:13;;;;;;;3.60;1.42;;;18.00;63.50;;;;;;4177706;28;20342;-48
2021/06/21 01:05:21;;;;;;;2.15;1.30;;;18.00;63.70;;;;;;4168514;28;20017;-47
2021/06/21 01:07:24;;;;;;;2.85;1.33;;;17.90;63.70;;;;;;4181485;28;20048;-48
2021/06/21 01:09:26;;;;;;;1.80;1.30;;;17.90;63.30;;;;;;4173105;28;20152;-54
2021/06/21 01:11:48;;;;;;;12.15;1.90;;;;;;;;;;4166539;28;20037;-51
2021/06/21 01:14:05;;;;;;;7.68;1.65;;;;;;;;;;4154660;28;20658;-50
2021/06/21 01:16:14;;;;;;;4.88;1.40;;;;;;;;;;4160530;28;20025;-50
2021/06/21 01:18:21;;;;;;;2.92;1.13;;;;;;;;;;4161375;28;20377;-48
2021/06/21 01:20:42;;;;;;;7.35;1.73;;;;;;;;;;4165217;28;20032;-56
2021/06/21 01:22:56;;;;;;;6.45;1.40;;;;;;;;;;4162652;28;20485;-51
2021/06/21 01:25:16;;;;;;;5.65;1.30;;;;;;;;;;4162332;28;20049;-55
2021/06/21 01:27:18;;;;;;;6.25;1.52;;;;;;;;;;4157136;28;20041;-51
2021/06/21 01:29:20;;;;;;;7.40;1.38;;;;;;;;;;4164186;28;20064;-49
2021/06/21 01:31:23;;;;;;;3.42;1.60;;;;;;;;;;4163684;28;20020;-49
2021/06/21 01:33:26;;;;;;;3.97;1.45;;;;;;;;;;4169365;28;20041;-50
2021/06/21 01:35:38;;;;;;;1.83;1.33;;;;;;;;;;4167263;28;20028;-51
2021/06/21 01:37:40;;;;;;;3.88;1.35;;;;;;;;;;4169942;28;20063;-53
2021/06/21 01:39:44;;;;;;;7.63;1.70;;;;;;;;;;4164997;28;20338;-45
2021/06/21 01:41:47;;;;;;;3.25;1.63;;;;;;;;;;4164311;28;20106;-48
2021/06/21 01:43:50;;;;;;;4.23;1.53;;;;;;;;;;4162467;28;20033;-53
2021/06/21 01:45:53;;;;;;;3.65;1.35;;;;;;;;;;4162407;28;20025;-51
2021/06/21 01:47:55;;;;;;;3.93;1.23;;;;;;;;;;4164207;28;20115;-57
2021/06/21 01:49:58;;;;;;;2.35;1.15;;;;;;;;;;4158705;28;20025;-54
2021/06/21 01:52:01;;;;;;;3.03;1.27;;;;;;;;;;4168750;28;20033;-51
2021/06/21 01:54:05;;;;;;;3.78;1.70;;;;;;;;;;4166243;28;20024;-48
2021/06/21 01:56:17;;;;;;;1.85;1.20;;;;;;;;;;4162607;28;20037;-52
2021/06/21 01:58:21;;;;;;;1.73;1.13;;;;;;;;;;4165408;28;20039;-47
2021/06/21 02:00:24;;;;;;;7.72;1.92;;;;;;;;;;4161190;28;20081;-49
2021/06/21 02:02:26;;;;;;;4.23;1.60;;;;;;;;;;4162360;28;20051;-51
2021/06/21 02:04:30;;;;;;;2.05;1.10;;;;;;;;;;4165100;28;20084;-50
2021/06/21 02:06:33;;;;;;;4.20;1.58;;;;;;;;;;4163702;28;20502;-43
2021/06/21 02:08:35;;;;;;;1.63;1.35;;;;;;;;;;4166512;28;20132;-52
2021/06/21 02:10:39;;;;;;;8.38;2.60;;;;;;;;;;4164670;28;20395;-51
2021/06/21 02:12:42;;;;;;;4.95;2.55;;;;;;;;;;4164710;28;20107;-49
2021/06/21 02:14:46;;;;;;;5.43;2.50;;;;;;;;;;4164748;28;20494;-52
2021/06/21 02:16:48;;;;;;;5.13;2.78;;;;;;;;;;4161557;28;20025;-48
2021/06/21 02:18:51;;;;;;;8.13;4.47;;;;;;;;;;4160386;28;20076;-46
2021/06/21 02:20:54;;;;;;;10.57;6.70;;;;;;;;;;4161801;28;20036;-47
2021/06/21 02:22:56;;;;;;;14.60;8.50;;;;;;;;;;4163157;28;20590;-47
2021/06/21 02:24:59;;;;;;;12.35;7.03;;;;;;;;;;4162076;28;20083;-47
2021/06/21 02:27:02;;;;;;;10.95;7.90;;;;;;;;;;4166651;28;20093;-48
2021/06/21 02:29:05;;;;;;;12.83;7.87;;;;;;;;;;4165813;28;20383;-51
2021/06/21 02:31:08;;;;;;;16.20;11.83;;;;;;;;;;4167846;28;20571;-51
2021/06/21 02:33:10;;;;;;;32.90;28.73;;;;;;;;;;4165946;28;20109;-51
2021/06/21 02:35:12;;;;;;;41.72;37.28;;;;;;;;;;4165362;28;20417;-49
2021/06/21 02:37:16;;;;;;;45.10;37.70;;;;;;;;;;4162789;28;20438;-53
2021/06/21 02:39:19;;;;;;;39.55;35.05;;;;;;;;;;4161638;28;20029;-49
2021/06/21 02:41:21;;;;;;;37.38;33.35;;;;;;;;;;4174486;28;20040;-48
2021/06/21 02:43:23;;;;;;;51.92;46.33;;;;;;;;;;4160375;28;20047;-49
2021/06/21 02:45:25;;;;;;;50.95;45.55;;;;;;;;;;4157138;28;20025;-52
2021/06/21 02:47:27;;;;;;;49.65;44.25;;;;;;;;;;4162616;28;20093;-54
2021/06/21 02:49:29;;;;;;;49.97;44.85;;;;;;;;;;4161156;28;20179;-52
2021/06/21 02:51:44;;;;;;;53.33;47.42;;;;;;;;;;4166568;28;20036;-53
2021/06/21 02:54:11;;;;;;;52.78;46.45;;;;;;;;;;4162227;28;20064;-56
2021/06/21 02:56:29;;;;;;;50.50;45.10;;;;;;;;;;4148864;28;20704;-54
2021/06/21 02:58:32;;;;;;;49.88;43.63;;;;;;;;;;4158238;28;20119;-56
2021/06/21 03:00:35;;;;;;;49.85;44.50;;;;;;;;;;4158476;28;20609;-52
2021/06/21 03:02:38;;;;;;;48.22;42.55;;;;;;;;;;4160572;28;20534;-50
2021/06/21 03:04:41;;;;;;;51.28;44.22;;;;;;;;;;4161280;28;20128;-52
2021/06/21 03:06:44;;;;;;;48.08;42.95;;;;;;;;;;4166751;28;20606;-53
2021/06/21 03:08:46;;;;;;;;;;;;;;;;;;4164973;28;20029;-51
2021/06/21 03:10:51;;;;;;;45.88;41.03;;;;;;;;;;4165803;28;20242;-49
2021/06/21 03:12:54;;;;;;;46.03;41.30;;;;;;;;;;4164482;28;20041;-50
2021/06/21 03:14:57;;;;;;;43.22;38.83;;;;;;;;;;4165577;28;20486;-51
2021/06/21 03:16:59;;;;;;;44.40;39.58;;;;;;;;;;4167312;28;20264;-54
2021/06/21 03:19:02;;;;;;;45.47;40.70;;;;;;;;;;4167818;28;20025;-52
2021/06/21 03:21:04;;;;;;;50.20;45.00;;;;;;;;;;4163819;28;20102;-54
2021/06/21 03:23:06;;;;;;;48.55;43.35;;;;;;;;;;4163395;28;20103;-54
2021/06/21 03:25:08;;;;;;;53.70;45.55;;;;;;;;;;4165169;28;20018;-47
2021/06/21 03:27:10;;;;;;;53.90;44.47;;;;;;;;;;4162391;28;20063;-51
2021/06/21 03:29:14;;;;;;;48.13;43.00;;;;;;;;;;4166728;28;20055;-54
2021/06/21 03:31:15;;;;;;;;;;;;;;;;;;4164333;28;20026;-51
2021/06/21 03:33:17;;;;;;;45.25;39.97;;;;;;;;;;4172643;28;20097;-54
2021/06/21 03:35:21;;;;;;;45.65;38.67;;;;;;;;;;4166941;28;20027;-53
2021/06/21 03:37:23;;;;;;;48.25;38.40;;;;;;;;;;4166911;28;20614;-53
2021/06/21 03:39:25;;;;;;;44.63;38.92;;;;;;;;;;4166470;28;20029;-53
2021/06/21 03:41:27;;;;;;;45.35;38.67;;;;;;;;;;4168828;28;20067;-53
2021/06/21 03:43:30;;;;;;;42.40;37.53;;;;;;;;;;4165398;28;20089;-48
2021/06/21 03:45:32;;;;;;;42.22;37.65;;;;;;;;;;4164122;28;20950;-49
2021/06/21 03:47:35;;;;;;;42.25;37.40;;;;;;;;;;4165940;28;20520;-48
2021/06/21 03:49:38;;;;;;;41.30;37.08;;;;;;;;;;4163387;28;20025;-47
2021/06/21 03:51:40;;;;;;;41.92;37.53;;;;;;;;;;4167308;28;20039;-54
2021/06/21 03:53:42;;;;;;;39.85;35.88;;;;;;;;;;4167678;28;20052;-51
2021/06/21 03:55:44;;;;;;;38.58;34.53;;;;;;;;;;4168344;28;20021;-49
2021/06/21 03:57:47;;;;;;;38.67;34.47;;;;;;;;;;4161133;28;20091;-48
2021/06/21 03:59:49;;;;;;;43.65;34.35;;;;;;;;;;4166002;28;20514;-60
2021/06/21 04:01:52;;;;;;;37.92;33.95;;;;;;;;;;4157800;28;20045;-59
2021/06/21 04:03:58;;;;;;;51.22;33.17;;;;;;;;;;4170478;28;20029;-57
2021/06/21 04:06:00;;;;;;;36.80;32.65;;;;;;;;;;4179118;28;20032;-60
2021/06/21 04:08:03;;;;;;;39.00;34.58;;;;;;;;;;4165423;28;20109;-57
2021/06/21 04:10:09;;;;;;;34.58;30.88;;;;;;;;;;4161326;28;20033;-59
2021/06/21 04:12:11;;;;;;;35.70;31.42;;;;;;;;;;4162848;28;20466;-59
2021/06/21 04:14:14;;;;;;;33.92;30.42;;;;;;;;;;4165345;28;20044;-59
2021/06/21 04:16:16;;;;;;;35.80;30.23;;;;;;;;;;4164153;28;20111;-60
2021/06/21 04:18:18;;;;;;;33.33;29.38;;;;;;;;;;4167048;28;20392;-60
2021/06/21 04:20:20;;;;;;;32.72;29.15;;;;;;;;;;4164166;28;20044;-60
2021/06/21 04:22:22;;;;;;;32.42;28.95;;;;;;;;;;4164918;28;20075;-61
2021/06/21 04:24:24;;;;;;;32.00;28.55;;;;;;;;;;4162263;28;20033;-54
2021/06/21 04:26:26;;;;;;;31.35;28.15;;;;;;;;;;4163713;28;20127;-59
2021/06/21 04:28:28;;;;;;;30.60;27.10;;;;;;;;;;4156845;28;20035;-57
2021/06/21 04:30:30;;;;;;;29.17;26.10;;;;;;;;;;4162913;28;20494;-55
2021/06/21 04:32:33;;;;;;;29.00;25.80;;;;;;;;;;4159181;28;20515;-58
2021/06/21 04:34:35;;;;;;;30.27;27.13;;;;;;;;;;4160844;28;20035;-59
2021/06/21 04:36:37;;;;;;;29.33;26.30;;;;;;;;;;4155262;28;20032;-59
2021/06/21 04:38:39;;;;;;;29.65;26.65;;;;;;;;;;4160440;28;20370;-59
2021/06/21 04:40:41;;;;;;;30.27;25.20;;;;;;;;;;4158443;28;20071;-60
2021/06/21 04:42:43;;;;;;;30.80;25.88;;;;;;;;;;4159720;28;20630;-60
2021/06/21 04:44:46;;;;;;;27.42;24.55;;;;;;;;;;4155493;28;20384;-59
2021/06/21 04:46:49;;;;;;;25.95;23.25;;;;;;;;;;4158805;28;20364;-59
2021/06/21 04:48:52;;;;;;;26.90;24.10;;;;;;;;;;4157959;28;20494;-60
2021/06/21 04:50:53;;;;;;;;;;;;;;;;;;4157022;28;20029;-57
2021/06/21 04:52:55;;;;;;;24.70;22.20;;;;;;;;;;4162178;28;20311;-58
2021/06/21 04:55:01;;;;;;;24.98;22.48;;;;;;;;;;4160579;28;20033;-59
2021/06/21 04:57:03;;;;;;;23.33;20.92;;;;;;;;;;4156353;28;20059;-58
2021/06/21 04:59:06;;;;;;;24.27;19.95;;;;;;;;;;4156807;28;20138;-55
2021/06/21 05:01:08;;;;;;;21.58;19.23;;;;;;;;;;4157089;28;20025;-58
2021/06/21 05:03:10;;;;;;;21.30;18.95;;;;;;;;;;4160331;28;20091;-59
2021/06/21 05:05:12;;;;;;;20.83;18.65;;;;;;;;;;4157479;28;20025;-60
2021/06/21 05:07:14;;;;;;;19.75;17.63;;;;;;;;;;4163718;28;20081;-59
2021/06/21 05:09:16;;;;;;;21.05;17.88;;;;;;;;;;4169708;28;20025;-59
2021/06/21 05:11:18;;;;;;;20.83;17.98;;;;;;;;;;4170137;28;20029;-58
2021/06/21 05:13:20;;;;;;;19.98;17.88;;;;;;;;;;4164078;28;20049;-58
2021/06/21 05:15:22;;;;;;;18.02;15.77;;;;;;;;;;4164816;28;20053;-58
2021/06/21 05:17:24;;;;;;;16.63;14.75;;;;;;;;;;4159264;28;20695;-59
2021/06/21 05:19:26;;;;;;;14.98;13.13;;;;;;;;;;4160198;28;20607;-53
2021/06/21 05:21:28;;;;;;;13.68;12.27;;;;;;;;;;4156893;28;20039;-58
2021/06/21 05:23:30;;;;;;;13.05;11.52;;;;;;;;;;4158289;28;20490;-56
2021/06/21 05:25:33;;;;;;;12.52;11.13;;;;;;;;;;4157512;28;20025;-55
2021/06/21 05:27:35;;;;;;;13.30;10.93;;;17.90;63.30;;;;;;4157102;28;20033;-52
2021/06/21 05:29:37;;;;;;;11.48;10.27;;;19.10;64.20;;;;;;4155833;28;20333;-57
2021/06/21 05:31:40;;;;;;;10.45;9.27;;;;;;;;;;4159795;28;20974;-57
2021/06/21 05:33:43;;;;;;;11.30;9.15;;;;;;;;;;4156869;28;20108;-60
2021/06/21 05:35:45;;;;;;;9.60;8.60;;;;;;;;;;4159645;28;20025;-59
2021/06/21 05:37:48;;;;;;;11.50;9.13;;;;;;;;;;4177017;28;20137;-59
2021/06/21 05:39:51;;;;;;;8.83;7.97;;;;;;;;;;4156338;28;20032;-59
2021/06/21 05:41:53;;;;;;;10.70;8.27;;;;;;;;;;4158831;28;20526;-58
2021/06/21 05:43:55;;;;;;;9.45;7.80;;;;;;;;;;4161625;28;20029;-59
2021/06/21 05:45:57;;;;;;;10.30;7.80;;;;;;;;;;4159160;28;20534;-58
2021/06/21 05:47:59;;;;;;;10.10;7.47;;;;;;;;;;4151773;28;20033;-59
2021/06/21 05:50:01;;;;;;;7.90;6.72;;;;;;;;;;4159701;28;20025;-58
2021/06/21 05:52:03;;;;;;;9.48;7.78;;;;;;;;;;4161075;28;20033;-59
2021/06/21 05:54:05;;;;;;;8.30;6.97;;;;;;;;;;4160043;28;20052;-59
2021/06/21 05:56:07;;;;;;;9.57;6.93;;;;;;;;;;4160864;28;20507;-58
2021/06/21 05:58:10;;;;;;;9.23;6.38;;;;;;;;;;4161431;28;20556;-57
2021/06/21 06:00:12;;;;;;;9.93;6.57;;;;;;;;;;4158869;28;20112;-58
2021/06/21 06:02:14;;;;;;;8.57;6.00;;;;;;;;;;4164361;28;20785;-59
2021/06/21 06:04:16;;;;;;;8.43;6.40;;;;;;;;;;4154642;28;20105;-61
2021/06/21 06:06:18;;;;;;;7.18;5.93;;;;;;;;;;4158624;28;20022;-58
2021/06/21 06:08:20;;;;;;;8.57;6.65;;;;;;;;;;4154128;28;20087;-55
2021/06/21 06:10:23;;;;;;;8.00;5.93;;;;;;;;;;4159214;28;20108;-61
2021/06/21 06:12:25;;;;;;;7.93;5.75;;;;;;;;;;4159077;28;20029;-59
2021/06/21 06:14:27;;;;;;;7.13;5.40;;;;;;;;;;4154593;28;20057;-58
2021/06/21 06:16:29;;;;;;;8.13;5.82;;;;;;;;;;4160505;28;20021;-59
2021/06/21 06:18:31;;;;;;;8.98;5.57;;;;;;;;;;4154888;28;20032;-59
2021/06/21 06:20:33;;;;;;;8.05;5.10;;;;;;;;;;4152820;28;20166;-55
2021/06/21 06:22:35;;;;;;;6.70;4.88;;;;;;;;;;4154441;28;20025;-55
2021/06/21 06:24:38;;;;;;;6.82;5.05;;;;;;;;;;4158326;28;20502;-54
2021/06/21 06:26:43;;;;;;;7.15;4.63;;;;;;;;;;4154395;28;20087;-59
2021/06/21 06:28:45;;;;;;;7.88;5.32;;;;;;;;;;4147958;28;20521;-59
2021/06/21 06:30:47;;;;;;;10.90;4.60;;;;;;;;;;4159097;28;20032;-57
2021/06/21 06:32:49;;;;;;;11.48;5.05;;;;;;;;;;4155762;28;20029;-58
2021/06/21 06:34:51;;;;;;;6.40;4.78;;;;;;;;;;4156834;28;20339;-58
2021/06/21 06:36:53;;;;;;;8.55;4.53;;;;;;;;;;4157731;28;20114;-56
2021/06/21 06:38:55;;;;;;;7.25;4.53;;;;;;;;;;4159341;28;20119;-59
2021/06/21 06:40:58;;;;;;;5.70;4.03;;;;;;;;;;4158228;28;20032;-59
2021/06/21 06:43:00;;;;;;;5.63;3.92;;;;;;;;;;4161139;28;20125;-59
2021/06/21 06:45:02;;;;;;;9.07;4.25;;;;;;;;;;4157077;28;20033;-58
2021/06/21 06:47:06;;;;;;;8.35;4.35;;;;;;;;;;4155734;28;20341;-57
2021/06/21 06:49:08;;;;;;;7.72;4.45;;;;;;;;;;4160385;28;20036;-58
2021/06/21 06:51:10;;;;;;;6.65;3.72;;;;;;;;;;4149646;28;20037;-58
2021/06/21 06:53:14;;;;;;;5.53;3.63;;;;;;;;;;4153565;28;20550;-59
2021/06/21 06:57:40;;;;;;;8.63;3.80;;;18.60;65.90;;;;;;4155605;28;20040;-60
2021/06/21 06:59:42;;;;;;;6.35;3.35;;;18.70;65.80;;;;;;4156078;28;20331;-59
2021/06/21 07:01:47;;;;;;;9.02;3.05;;;;;;;;;;4159520;28;20048;-56
2021/06/21 07:03:52;;;;;;;5.90;3.03;;;;;;;;;;4165687;28;20470;-58
2021/06/21 07:05:54;;;;;;;5.20;3.20;;;19.20;65.00;;;;;;4147148;28;20095;-58
2021/06/21 07:07:57;;;;;;;3.85;2.80;;;21.00;61.10;;;;;;4154971;28;20095;-58
2021/06/21 07:09:59;;;;;;;5.22;2.40;;;;;;;;;;4155526;28;20533;-58
2021/06/21 07:12:02;;;;;;;5.45;2.47;;;;;;;;;;4156890;28;20462;-57
2021/06/21 07:14:06;;;;;;;4.40;2.40;;;;;;;;;;4159151;28;20040;-57
2021/06/21 07:16:09;;;;;;;11.00;2.38;;;;;;;;;;4155669;28;20141;-58
2021/06/21 07:18:11;;;;;;;5.70;2.50;;;;;;;;;;4158116;28;20020;-58
2021/06/21 07:20:13;;;;;;;4.53;2.20;;;;;;;;;;4156758;28;20045;-58
2021/06/21 07:22:15;;;;;;;5.30;2.42;;;;;;;;;;4163122;28;20975;-57
2021/06/21 07:24:18;;;;;;;5.47;2.30;;;21.40;59.90;;;;;;4160897;28;20087;-58
2021/06/21 07:26:20;;;;;;;6.25;2.65;;;;;;;;;;4155985;28;20302;-58
2021/06/21 07:28:23;;;;;;;4.75;2.67;;;;;;;;;;4160663;28;20055;-58
2021/06/21 07:30:26;;;;;;;4.35;2.60;;;21.40;59.30;;;;;;4156933;28;20345;-59
2021/06/21 07:32:28;;;;;;;4.78;2.70;;;20.90;59.60;;;;;;4160860;28;20530;-58
2021/06/21 07:34:31;;;;;;;6.32;2.85;;;20.80;59.80;;;;;;4155914;28;20052;-58
2021/06/21 07:36:33;;;;;;;;;;;20.70;60.00;;;;;;4164353;28;20032;-58
2021/06/21 07:38:35;;;;;;;5.97;2.55;;;20.60;60.10;;;;;;4156002;28;20501;-58
2021/06/21 07:40:38;;;;;;;6.20;2.90;;;20.50;60.20;;;;;;4158540;28;20124;-58
2021/06/21 07:42:40;;;;;;;6.30;3.03;;;20.40;60.40;;;;;;4161778;28;20037;-58
2021/06/21 07:44:43;;;;;;;5.57;2.70;;;20.40;60.40;;;;;;4163564;28;20089;-58
2021/06/21 07:46:47;;;;;;;5.93;3.00;;;20.30;60.70;;;;;;4155178;28;20338;-58
2021/06/21 07:48:50;;;;;;;6.35;3.38;;;20.20;60.80;;;;;;4160236;28;20185;-58
2021/06/21 07:50:53;;;;;;;8.70;3.50;;;20.10;61.00;;;;;;4157264;28;20482;-58
2021/06/21 07:52:57;;;;;;;6.15;3.58;;;20.10;61.10;;;;;;4160607;28;20043;-57
2021/06/21 07:54:59;;;;;;;5.53;3.28;;;20.00;61.20;;;;;;4157249;28;20031;-56
2021/06/21 07:57:01;;;;;;;5.78;3.20;;;20.00;61.20;;;;;;4159349;28;20020;-58
2021/06/21 07:59:03;;;;;;;4.45;3.10;;;19.90;61.20;;;;;;4160158;28;20115;-57
2021/06/21 08:01:06;;;;;;;5.57;2.93;;;19.90;61.20;;;;;;4161564;28;20057;-59
2021/06/21 08:03:12;;;;;;;6.05;3.70;;;19.80;61.30;;;;;;4164135;28;20046;-58
2021/06/21 08:05:14;;;;;;;6.88;4.10;;;19.80;61.50;;;;;;4160914;28;20120;-58
2021/06/21 08:07:18;;;;;;;7.65;5.05;;;19.70;61.50;;;;;;4159457;28;20025;-59
2021/06/21 08:09:19;;;;;;;;;;;19.70;61.70;;;;;;4157543;28;20025;-58
2021/06/21 08:11:21;;;;;;;8.95;4.72;;;19.60;61.70;;;;;;4158532;28;20508;-58
2021/06/21 08:13:23;;;;;;;9.00;5.65;;;19.50;61.80;;;;;;4156056;28;20113;-58
2021/06/21 08:15:26;;;;;;;9.43;6.00;;;;;;;;;;4162719;28;20038;-58
2021/06/21 08:17:28;;;;;;;11.00;5.93;;;19.50;61.90;;;;;;4160525;28;20559;-59
2021/06/21 08:19:30;;;;;;;9.55;5.32;;;;;;;;;;4163186;28;20629;-57
2021/06/21 08:21:32;;;;;;;8.75;5.57;;;;;;;;;;4159653;28;20032;-58
2021/06/21 08:23:34;;;;;;;8.57;5.82;;;;;;;;;;4163837;28;20077;-58
2021/06/21 08:25:36;;;;;;;7.72;5.72;;;;;;;;;;4175091;28;20072;-58
2021/06/21 08:27:38;;;;;;;9.40;6.10;;;;;;;;;;4157073;28;20436;-57
2021/06/21 08:29:40;;;;;;;7.70;5.65;;;19.30;62.20;;;;;;4156457;28;20730;-57
2021/06/21 08:31:42;;;;;;;7.05;5.50;;;19.10;63.90;;;;;;4156877;28;20084;-57
2021/06/21 08:33:45;;;;;;;6.93;4.70;;;19.40;64.50;;;;;;4165247;28;20332;-58
2021/06/21 08:35:48;;;;;;;6.32;4.90;;;19.90;62.90;;;;;;4162301;28;20541;-56
2021/06/21 08:37:50;;;;;;;5.77;4.53;;;20.50;61.70;;;;;;4166192;28;20044;-58
2021/06/21 08:39:53;;;;;;;6.80;4.05;;;21.10;60.40;;;;;;4167160;28;20422;-57
2021/06/21 08:41:57;;;;;;;5.25;4.30;;;21.50;59.30;;;;;;4165828;28;20139;-57
2021/06/21 08:44:01;;;;;;;6.97;4.75;;;;;;;;;;4162863;28;20025;-55
2021/06/21 08:46:03;;;;;;;6.00;4.30;;;22.00;58.40;;;;;;4164751;28;20404;-53
2021/06/21 08:48:08;;;;;;;3.92;3.45;;;22.80;57.70;;;;;;4160771;28;20636;-54
2021/06/21 08:50:12;;;;;;;6.15;3.72;;;23.10;56.40;;;;;;4161581;28;20955;-58
2021/06/21 08:52:15;;;;;;;5.45;3.55;;;23.50;55.80;;;;;;4161021;28;20036;-53
2021/06/21 08:54:17;;;;;;;;;;;23.80;55.30;;;;;;4165085;28;20066;-57
2021/06/21 08:56:19;;;;;;;5.30;4.10;;;24.00;54.70;;;;;;4159425;28;20555;-57
2021/06/21 08:58:21;;;;;;;5.22;3.70;;;24.30;54.20;;;;;;4157795;28;20025;-59
2021/06/21 09:00:23;;;;;;;4.40;3.22;;;24.60;53.80;;;;;;4161960;28;20076;-58
2021/06/21 09:02:28;;;;;;;5.77;3.83;;;24.80;53.30;;;;;;4162260;28;20156;-56
2021/06/21 09:04:31;;;;;;;4.97;3.35;;;25.00;53.00;;;;;;4160327;28;20319;-58
2021/06/21 09:06:39;;;;;;;4.13;3.40;;;25.20;52.50;;;;;;4157691;28;20131;-57
2021/06/21 09:08:54;;;;;;;4.85;3.30;;;25.50;52.30;;;;;;4158453;28;20040;-57
2021/06/21 09:10:56;;;;;;;4.53;3.08;;;25.70;52.00;;;;;;4159738;28;20108;-55
2021/06/21 09:13:12;;;;;;;4.40;3.10;;;25.90;51.70;;;;;;4164303;28;20033;-55
2021/06/21 09:15:14;;;;;;;8.07;3.60;;;25.80;51.50;;;;;;4167749;28;20032;-50
2021/06/21 09:17:20;;;;;;;5.03;3.38;;;25.50;51.70;;;;;;4162621;28;20036;-52
2021/06/21 09:19:24;;;;;;;4.65;3.30;;;25.20;52.20;;;;;;4158434;28;20524;-50
2021/06/21 09:21:34;;;;;;;6.63;3.72;;;24.90;52.60;;;;;;4166470;28;20055;-55
2021/06/21 09:23:36;;;;;;;5.18;3.30;;;24.60;53.30;;;;;;4162404;28;20410;-58
2021/06/21 09:25:41;;;;;;;4.45;3.13;;;24.30;53.60;;;;;;4174935;28;20024;-58
2021/06/21 09:28:06;;;;;;;6.50;3.35;;;24.10;53.80;;;;;;4154168;28;20084;-49
2021/06/21 09:30:13;;;;;;;6.78;3.30;;;23.80;54.20;;;;;;4158412;28;20736;-55
2021/06/21 09:32:16;;;;;;;5.20;3.38;;;23.60;54.50;;;;;;4155045;28;20037;-54
2021/06/21 09:34:20;;;;;;;5.32;3.40;;;23.50;54.80;;;;;;4161468;28;20031;-54
2021/06/21 09:36:30;;;;;;;4.65;3.47;;;23.30;55.00;;;;;;4159743;28;20037;-57
2021/06/21 09:38:33;;;;;;;5.43;3.60;;;23.20;55.40;;;;;;4156570;28;20037;-52
2021/06/21 09:40:50;;;;;;;7.57;3.23;;;23.00;55.60;;;;;;4160178;28;20032;-52
2021/06/21 09:42:52;;;;;;;5.80;3.83;;;22.90;55.70;;;;;;4161475;28;20075;-52
2021/06/21 09:45:01;;;;;;;4.20;3.00;;;22.80;56.00;;;;;;4160811;28;20513;-53
2021/06/21 09:47:25;;;;;;;5.75;3.80;;;22.60;56.10;;;;;;4161139;28;20054;-54
2021/06/21 09:49:27;;;;;;;5.88;3.53;;;22.50;56.20;;;;;;4174883;28;20128;-54
2021/06/21 09:51:32;;;;;;;4.50;3.50;;;22.40;56.30;;;;;;4163884;28;20033;-57
2021/06/21 09:53:34;;;;;;;4.68;3.45;;;22.30;56.20;;;;;;4162014;28;20036;-58
2021/06/21 09:55:36;;;;;;;4.75;3.25;;;22.20;56.40;;;;;;4156170;28;20025;-59
2021/06/21 09:57:39;;;;;;;5.20;3.63;;;22.10;56.50;;;;;;4161842;28;20027;-58
2021/06/21 09:59:48;;;;;;;7.60;3.75;;;22.10;56.60;;;;;;4159931;28;20529;-58
2021/06/21 10:02:07;;;;;;;4.82;3.28;;;22.00;56.80;;;;;;4158384;28;20049;-57
2021/06/21 10:04:25;;;;;;;4.60;3.22;;;21.90;56.60;;;;;;4159024;28;20037;-57
2021/06/21 10:06:37;;;;;;;4.72;3.17;;;21.80;56.80;;;;;;4157535;28;20041;-57
2021/06/21 10:08:47;;;;;;;5.70;3.58;;;21.80;57.10;;;;;;4158162;28;20122;-59
2021/06/21 10:10:49;;;;;;;4.55;3.63;;;21.70;57.10;;;;;;4157227;28;20080;-59
2021/06/21 10:12:51;;;;;;;3.83;3.13;;;21.60;57.10;;;;;;4157824;28;20033;-59
2021/06/21 10:14:54;;;;;;;4.88;3.67;;;21.60;57.30;;;;;;4158884;28;20130;-59
2021/06/21 10:16:57;;;;;;;6.75;3.80;;;21.50;57.60;;;;;;4164402;28;20138;-57
2021/06/21 10:19:00;;;;;;;5.25;3.58;;;21.40;57.20;;;;;;4173975;28;20597;-59
2021/06/21 10:21:02;;;;;;;5.05;3.42;;;21.40;57.30;;;;;;4162436;28;20435;-58
2021/06/21 10:23:06;;;;;;;4.75;3.10;;;;;;;;;;4158631;28;20202;-58
2021/06/21 10:25:10;;;;;;;5.55;3.90;;;21.30;57.40;;;;;;4162121;28;20143;-58
2021/06/21 10:27:15;;;;;;;5.97;3.47;;;21.20;57.30;;;;;;4160897;28;20090;-59
2021/06/21 10:29:17;;;;;;;4.68;3.63;;;;;;;;;;4165322;28;20082;-53
2021/06/21 10:31:23;;;;;;;6.03;4.30;;;;;;;;;;4160367;28;20037;-56
2021/06/21 10:33:25;;;;;;;10.95;4.07;;;;;;;;;;4162609;28;20025;-53
2021/06/21 10:35:31;;;;;;;4.70;3.50;;;;;;;;;;4163358;28;20033;-55
2021/06/21 10:37:36;;;;;;;3.70;3.30;;;;;;;;;;4161861;28;20024;-54
2021/06/21 10:39:38;;;;;;;4.95;3.40;;;;;;;;;;4171837;28;20394;-53
2021/06/21 10:41:40;;;;;;;4.85;3.60;;;;;;;;;;4163431;28;20227;-56
2021/06/21 10:43:45;;;;;;;5.95;3.67;;;;;;;;;;4165019;28;20041;-52
2021/06/21 10:45:47;;;;;;;4.72;3.63;;;;;;;;;;4165210;28;20075;-54
2021/06/21 10:48:09;;;;;;;5.32;3.65;;;;;;;;;;4167178;28;20048;-57
2021/06/21 10:50:11;;;;;;;4.57;3.50;;;;;;;;;;4157724;28;20057;-56
2021/06/21 10:52:31;;;;;;;5.93;3.90;;;;;;;;;;4164987;28;20025;-59
2021/06/21 10:54:33;;;;;;;7.10;3.53;;;;;;;;;;4168678;28;20027;-59
2021/06/21 10:56:49;;;;;;;5.82;3.88;;;;;;;;;;4168973;28;20098;-58
2021/06/21 10:59:11;;;;;;;11.45;4.20;;;;;;;;;;4161650;28;20609;-58
2021/06/21 11:01:13;;;;;;;10.55;3.50;;;;;;;;;;4163015;28;20033;-56
2021/06/21 11:03:26;;;;;;;6.25;2.97;;;;;;;;;;4164916;28;20138;-56
2021/06/21 11:05:34;;;;;;;6.32;3.38;;;;;;;;;;4163695;28;20319;-56
2021/06/21 11:07:37;;;;;;;7.40;3.40;;;;;;;;;;4177641;28;20081;-57
2021/06/21 11:09:41;;;;;;;8.10;3.58;;;;;;;;;;4160061;28;20036;-58
2021/06/21 11:11:45;;;;;;;5.47;2.97;;;;;;;;;;4165252;28;20071;-57
2021/06/21 11:13:48;;;;;;;6.40;3.30;;;;;;;;;;4164436;28;20036;-57
2021/06/21 11:16:08;;;;;;;6.35;3.10;;;;;;;;;;4164011;28;20029;-58
2021/06/21 11:18:23;;;;;;;7.97;3.20;;;;;;;;;;4166411;28;20521;-58
2021/06/21 11:20:31;;;;;;;4.72;3.15;;;;;;;;;;4167771;28;20029;-57
2021/06/21 11:22:43;;;;;;;5.28;2.88;;;;;;;;;;4166806;28;20044;-56
2021/06/21 11:24:46;;;;;;;6.75;3.40;;;;;;;;;;4166411;28;20052;-55
2021/06/21 11:27:02;;;;;;;5.10;3.08;;;;;;;;;;4165028;28;20403;-57
2021/06/21 11:29:30;;;;;;;5.32;2.75;;;21.10;57.80;;;;;;4163427;28;20095;-58
2021/06/21 11:31:32;;;;;;;4.65;3.20;;;19.80;59.90;;;;;;4166021;28;20029;-48
2021/06/21 11:34:06;;;;;;;5.90;3.10;;;19.70;60.20;;;;;;4160972;28;20382;-45
2021/06/21 11:36:09;;;;;;;6.35;3.00;;;19.70;60.40;;;;;;4168207;28;20101;-50
2021/06/21 11:38:21;;;;;;;3.83;2.72;;;19.60;60.40;;;;;;4166275;28;20142;-47
2021/06/21 11:40:26;;;;;;;6.15;3.25;;;19.50;60.70;;;;;;4164823;28;20043;-54
2021/06/21 11:42:28;;;;;;;5.57;2.75;;;19.50;60.90;;;;;;4164674;28;20033;-51
2021/06/21 11:44:40;;;;;;;5.75;3.00;;;19.50;60.50;;;;;;4162103;28;20312;-51